createdAt,value
2022-12-19T00:00:07.650Z,19.53
2022-12-19T00:02:39.097Z,19.00
2022-12-19T00:05:06.456Z,19.10
2022-12-19T00:07:33.305Z,20.90
2022-12-19T00:09:59.955Z,20.30
2022-12-19T00:12:26.487Z,20.40
2022-12-19T00:14:53.065Z,19.90
2022-12-19T00:17:19.648Z,20.70
2022-12-19T00:19:46.400Z,19.17
2022-12-19T00:22:12.993Z,20.83
2022-12-19T00:24:39.874Z,20.40
2022-12-19T00:27:06.615Z,19.57
2022-12-19T00:29:33.319Z,19.77
2022-12-19T00:31:59.932Z,20.90
2022-12-19T00:34:26.629Z,19.73
2022-12-19T00:36:53.137Z,21.00
2022-12-19T00:39:19.774Z,20.57
2022-12-19T00:41:46.294Z,19.97
2022-12-19T00:44:14.495Z,21.07
2022-12-19T00:46:41.894Z,21.03
2022-12-19T00:49:09.974Z,20.70
2022-12-19T00:51:37.727Z,19.93
2022-12-19T00:54:07.371Z,20.83
2022-12-19T00:56:37.375Z,21.60
2022-12-19T00:59:05.156Z,18.93
2022-12-19T01:01:34.842Z,20.70
2022-12-19T01:04:27.669Z,20.23
2022-12-19T01:06:52.002Z,21.13
2022-12-19T01:09:19.167Z,20.53
2022-12-19T01:12:04.213Z,19.73
2022-12-19T01:14:30.767Z,19.60
2022-12-19T01:16:57.353Z,21.83
2022-12-19T01:19:24.206Z,20.20
2022-12-19T01:21:50.760Z,20.60
2022-12-19T01:24:18.895Z,20.97
2022-12-19T01:26:46.097Z,20.37
2022-12-19T01:29:12.620Z,21.33
2022-12-19T01:31:39.198Z,21.07
2022-12-19T01:34:08.238Z,21.90
2022-12-19T01:36:39.595Z,21.17
2022-12-19T01:39:06.539Z,21.40
2022-12-19T01:41:33.228Z,20.60
2022-12-19T01:44:08.735Z,22.10
2022-12-19T01:46:54.166Z,22.57
2022-12-19T01:49:32.165Z,20.03
2022-12-19T01:52:06.434Z,21.47
2022-12-19T01:54:40.547Z,20.73
2022-12-19T01:57:13.973Z,21.93
2022-12-19T01:59:54.390Z,19.97
2022-12-19T02:02:28.334Z,21.87
2022-12-19T02:04:54.978Z,21.77
2022-12-19T02:07:24.181Z,21.27
2022-12-19T02:09:56.720Z,22.33
2022-12-19T02:12:25.802Z,19.93
2022-12-19T02:14:54.103Z,21.03
2022-12-19T02:17:35.625Z,21.17
2022-12-19T02:20:39.872Z,18.60
2022-12-19T02:23:33.379Z,21.40
2022-12-19T02:26:32.401Z,20.30
2022-12-19T02:29:16.663Z,20.17
2022-12-19T02:31:49.063Z,21.23
2022-12-19T02:34:21.729Z,20.17
2022-12-19T02:37:28.120Z,21.17
2022-12-19T02:40:11.884Z,19.13
2022-12-19T02:42:43.991Z,20.27
2022-12-19T02:45:15.623Z,20.23
2022-12-19T02:47:52.022Z,19.63
2022-12-19T02:50:19.018Z,20.80
2022-12-19T02:52:47.310Z,20.00
2022-12-19T02:55:21.581Z,19.70
2022-12-19T02:57:50.964Z,20.00
2022-12-19T03:00:20.662Z,18.43
2022-12-19T03:03:07.454Z,19.70
2022-12-19T03:05:34.064Z,21.63
2022-12-19T03:08:26.491Z,20.23
2022-12-19T03:10:59.048Z,19.23
2022-12-19T03:13:47.397Z,19.23
2022-12-19T03:16:14.811Z,19.50
2022-12-19T03:18:42.383Z,19.70
2022-12-19T03:21:20.551Z,18.87
2022-12-19T03:23:50.119Z,20.27
2022-12-19T03:26:20.011Z,20.17
2022-12-19T03:29:03.798Z,19.80
2022-12-19T03:31:33.325Z,19.77
2022-12-19T03:34:08.745Z,21.07
2022-12-19T03:36:41.674Z,20.20
2022-12-19T03:39:11.397Z,19.90
2022-12-19T03:41:58.177Z,19.03
2022-12-19T03:44:28.672Z,19.73
2022-12-19T03:47:03.571Z,18.90
2022-12-19T03:49:30.463Z,19.90
2022-12-19T03:52:10.843Z,19.13
2022-12-19T03:54:42.349Z,19.13
2022-12-19T03:57:34.186Z,19.40
2022-12-19T04:00:06.375Z,21.20
2022-12-19T04:02:38.185Z,19.47
2022-12-19T04:05:08.910Z,19.60
2022-12-19T04:07:37.668Z,18.67
2022-12-19T04:10:11.541Z,20.40
2022-12-19T04:12:42.902Z,21.37
2022-12-19T04:15:10.070Z,20.23
2022-12-19T04:17:57.887Z,20.40
2022-12-19T04:20:28.942Z,20.70
2022-12-19T04:23:34.759Z,20.77
2022-12-19T04:26:04.617Z,20.13
2022-12-19T04:28:42.046Z,20.20
2022-12-19T04:31:13.263Z,21.70
2022-12-19T04:33:39.803Z,21.47
2022-12-19T04:36:06.865Z,22.40
2022-12-19T04:38:33.610Z,21.73
2022-12-19T04:41:00.596Z,22.53
2022-12-19T04:43:27.209Z,21.77
2022-12-19T04:45:57.305Z,21.47
2022-12-19T04:48:24.013Z,23.07
2022-12-19T04:50:50.554Z,22.37
2022-12-19T04:53:17.263Z,22.27
2022-12-19T04:55:44.331Z,23.70
2022-12-19T04:58:11.491Z,22.50
2022-12-19T05:00:38.796Z,23.47
2022-12-19T05:03:05.451Z,24.27
2022-12-19T05:05:32.067Z,24.57
2022-12-19T05:07:58.657Z,25.30
2022-12-19T05:10:25.455Z,22.93
2022-12-19T05:12:54.452Z,27.00
2022-12-19T05:15:21.013Z,26.07
2022-12-19T05:17:47.526Z,25.13
2022-12-19T05:20:16.379Z,26.87
2022-12-19T05:22:42.887Z,27.73
2022-12-19T05:25:09.873Z,25.80
2022-12-19T05:27:36.428Z,27.33
2022-12-19T05:30:03.434Z,26.17
2022-12-19T05:32:32.123Z,26.70
2022-12-19T05:34:58.773Z,25.83
2022-12-19T05:37:25.438Z,25.63
2022-12-19T05:39:51.989Z,27.43
2022-12-19T05:42:18.618Z,27.73
2022-12-19T05:44:45.230Z,27.40
2022-12-19T05:47:11.791Z,26.37
2022-12-19T05:49:41.374Z,27.27
2022-12-19T05:52:07.904Z,27.30
2022-12-19T05:54:34.875Z,26.03
2022-12-19T05:57:01.626Z,27.80
2022-12-19T05:59:28.206Z,24.97
2022-12-19T06:01:55.045Z,25.87
2022-12-19T06:04:21.797Z,25.40
2022-12-19T06:06:48.372Z,24.83
2022-12-19T06:09:14.977Z,26.00
2022-12-19T06:11:41.808Z,24.57
2022-12-19T06:14:08.525Z,24.73
2022-12-19T06:16:35.183Z,25.50
2022-12-19T06:19:01.907Z,26.30
2022-12-19T06:21:28.509Z,25.93
2022-12-19T06:23:55.098Z,25.63
2022-12-19T06:26:22.754Z,24.70
2022-12-19T06:28:54.768Z,24.13
2022-12-19T06:31:23.851Z,26.50
2022-12-19T06:33:52.019Z,24.07
2022-12-19T06:36:44.574Z,25.60
2022-12-19T06:39:14.394Z,24.13
2022-12-19T06:42:00.239Z,23.63
2022-12-19T06:44:26.787Z,25.47
2022-12-19T06:46:54.293Z,24.83
2022-12-19T06:49:21.153Z,25.87
2022-12-19T06:51:47.833Z,26.40
2022-12-19T06:54:14.712Z,26.27
2022-12-19T06:56:44.145Z,24.37
2022-12-19T06:59:15.811Z,25.37
2022-12-19T07:01:42.965Z,23.43
2022-12-19T07:04:11.969Z,24.10
2022-12-19T07:06:39.199Z,25.10
2022-12-19T07:09:06.561Z,25.00
2022-12-19T07:11:33.128Z,24.87
2022-12-19T07:13:59.569Z,25.17
2022-12-19T07:16:27.544Z,24.33
2022-12-19T07:18:54.306Z,23.20
2022-12-19T07:21:20.939Z,23.90
2022-12-19T07:23:47.419Z,23.53
2022-12-19T07:26:13.914Z,23.53
2022-12-19T07:28:40.513Z,23.40
2022-12-19T07:31:06.973Z,24.37
2022-12-19T07:33:33.779Z,22.67
2022-12-19T07:36:00.480Z,23.17
2022-12-19T07:38:26.953Z,23.60
2022-12-19T07:40:53.472Z,21.73
2022-12-19T07:43:20.076Z,23.90
2022-12-19T07:45:46.613Z,22.00
2022-12-19T07:48:13.248Z,22.30
2022-12-19T07:50:40.709Z,21.90
2022-12-19T07:53:07.161Z,23.80
2022-12-19T07:55:33.679Z,21.30
2022-12-19T07:58:00.522Z,23.03
2022-12-19T08:00:27.046Z,23.17
2022-12-19T08:02:53.721Z,22.93
2022-12-19T08:05:20.430Z,23.13
2022-12-19T08:07:46.889Z,22.27
2022-12-19T08:10:15.002Z,22.93
2022-12-19T08:12:42.294Z,22.63
2022-12-19T08:15:09.435Z,22.67
2022-12-19T08:17:38.727Z,23.03
2022-12-19T08:20:08.108Z,22.40
2022-12-19T08:22:34.954Z,23.43
2022-12-19T08:25:01.425Z,21.73
2022-12-19T08:27:27.941Z,24.43
2022-12-19T08:29:54.438Z,21.60
2022-12-19T08:32:22.022Z,21.47
2022-12-19T08:34:49.926Z,22.90
2022-12-19T08:37:16.833Z,22.80
2022-12-19T08:39:43.403Z,22.37
2022-12-19T08:42:09.916Z,22.03
2022-12-19T08:44:36.414Z,21.70
2022-12-19T08:47:02.923Z,20.77
2022-12-19T08:49:29.413Z,22.03
2022-12-19T08:51:56.130Z,22.90
2022-12-19T08:54:22.683Z,22.23
2022-12-19T08:56:49.191Z,21.73
2022-12-19T08:59:21.119Z,22.87
2022-12-19T09:01:58.732Z,22.03
2022-12-19T09:06:02.643Z,22.20
2022-12-19T09:07:15.675Z,21.13
2022-12-19T09:09:42.693Z,22.50
2022-12-19T09:12:09.216Z,22.30
2022-12-19T09:14:36.306Z,20.73
2022-12-19T09:17:03.956Z,21.50
2022-12-19T09:19:31.692Z,21.50
2022-12-19T09:21:58.479Z,21.13
2022-12-19T09:24:24.960Z,20.43
2022-12-19T09:26:51.445Z,20.87
2022-12-19T09:29:20.908Z,19.80
2022-12-19T09:31:55.794Z,20.00
2022-12-19T09:34:31.767Z,20.97
2022-12-19T09:37:07.261Z,20.60
2022-12-19T09:39:35.578Z,21.07
2022-12-19T09:42:20.885Z,21.57
2022-12-19T09:45:04.285Z,20.37
2022-12-19T09:47:38.081Z,20.40
2022-12-19T09:50:22.932Z,19.67
2022-12-19T09:52:58.284Z,20.23
2022-12-19T09:55:40.609Z,20.10
2022-12-19T09:58:13.899Z,19.43
2022-12-19T10:00:44.690Z,20.23
2022-12-19T10:03:42.391Z,19.07
2022-12-19T10:07:07.708Z,18.57
2022-12-19T10:10:01.037Z,18.57
2022-12-19T10:12:39.411Z,19.57
2022-12-19T10:15:27.634Z,18.77
2022-12-19T10:18:15.609Z,21.40
2022-12-19T10:20:49.753Z,19.57
2022-12-19T10:23:42.463Z,19.80
2022-12-19T10:26:29.944Z,19.17
2022-12-19T10:29:14.723Z,18.90
2022-12-19T10:32:11.437Z,18.73
2022-12-19T10:34:42.239Z,18.60
2022-12-19T10:37:40.930Z,19.07
2022-12-19T10:40:20.011Z,18.80
2022-12-19T10:43:02.640Z,19.23
2022-12-19T10:45:46.875Z,17.97
2022-12-19T10:48:20.898Z,19.50
2022-12-19T10:50:52.270Z,17.83
2022-12-19T10:53:28.420Z,18.67
2022-12-19T10:56:00.701Z,18.67
2022-12-19T10:58:28.357Z,18.67
2022-12-19T11:01:10.141Z,17.27
2022-12-19T11:03:38.803Z,17.57
2022-12-19T11:06:06.607Z,17.17
2022-12-19T11:08:37.672Z,16.07
2022-12-19T11:14:29.789Z,16.87
2022-12-19T11:18:22.777Z,16.77
2022-12-19T11:22:18.800Z,17.00
2022-12-19T11:29:25.267Z,16.27
2022-12-19T11:29:37.952Z,16.43
2022-12-19T11:29:44.095Z,16.27
2022-12-19T11:29:45.795Z,16.27
2022-12-19T11:34:06.365Z,16.87
2022-12-19T11:36:49.622Z,16.90
2022-12-19T11:39:23.607Z,16.77
2022-12-19T11:42:20.086Z,15.13
2022-12-19T11:44:50.673Z,15.30
2022-12-19T11:47:26.285Z,16.30
2022-12-19T11:50:00.167Z,16.70
2022-12-19T11:53:04.463Z,16.17
2022-12-19T11:55:54.507Z,16.43
2022-12-19T11:58:24.190Z,16.27
2022-12-19T12:01:44.355Z,16.07
2022-12-19T12:04:44.433Z,15.40
2022-12-19T12:08:22.534Z,14.93
2022-12-19T12:15:10.232Z,14.73
2022-12-19T12:24:15.937Z,14.30
2022-12-19T12:26:03.331Z,14.07
2022-12-19T12:31:16.376Z,14.17
2022-12-19T12:31:16.639Z,14.30
2022-12-19T12:31:52.576Z,12.80
2022-12-19T12:32:02.054Z,13.87
2022-12-19T12:35:46.388Z,13.43
2022-12-19T12:40:39.437Z,12.73
2022-12-19T12:43:44.015Z,13.03
2022-12-19T12:46:20.302Z,13.03
2022-12-19T12:48:51.750Z,12.50
2022-12-19T12:51:18.741Z,12.33
2022-12-19T12:53:46.753Z,12.83
2022-12-19T12:56:16.474Z,11.97
2022-12-19T12:58:48.853Z,12.23
2022-12-19T13:01:26.001Z,12.77
2022-12-19T13:03:59.419Z,11.87
2022-12-19T13:06:46.193Z,11.73
2022-12-19T13:09:28.118Z,12.37
2022-12-19T13:12:22.788Z,11.47
2022-12-19T13:14:50.920Z,11.93
2022-12-19T13:17:32.907Z,11.70
2022-12-19T13:20:27.653Z,12.37
2022-12-19T13:23:00.434Z,11.17
2022-12-19T13:25:26.910Z,10.60
2022-12-19T13:28:01.444Z,11.63
2022-12-19T13:30:46.700Z,11.23
2022-12-19T13:33:22.136Z,10.80
2022-12-19T13:39:37.595Z,10.93
2022-12-19T13:40:01.589Z,10.13
2022-12-19T13:42:00.005Z,9.97
2022-12-19T13:44:26.720Z,10.53
2022-12-19T13:46:55.984Z,11.03
2022-12-19T13:49:34.878Z,10.30
2022-12-19T13:52:02.945Z,10.63
2022-12-19T13:54:45.567Z,10.90
2022-12-19T13:57:23.040Z,10.23
2022-12-19T13:59:59.960Z,9.83
2022-12-19T14:02:33.095Z,9.90
2022-12-19T14:05:33.781Z,9.30
2022-12-19T14:08:16.842Z,9.57
2022-12-19T14:11:35.050Z,10.33
2022-12-19T14:14:08.168Z,9.33
2022-12-19T14:16:44.753Z,9.97
2022-12-19T14:19:24.080Z,9.63
2022-12-19T14:22:09.748Z,9.80
2022-12-19T14:24:37.649Z,9.17
2022-12-19T14:28:24.645Z,9.43
2022-12-19T14:30:27.323Z,9.73
2022-12-19T14:33:44.122Z,9.10
2022-12-19T14:36:07.557Z,8.87
2022-12-19T14:39:24.815Z,8.93
2022-12-19T14:41:46.733Z,9.03
2022-12-19T14:51:51.824Z,9.53
2022-12-19T14:53:52.728Z,9.27
2022-12-19T14:54:17.514Z,9.37
2022-12-19T14:54:21.709Z,9.23
2022-12-19T14:56:02.118Z,9.20
2022-12-19T14:58:53.700Z,9.50
2022-12-19T15:01:25.922Z,9.00
2022-12-19T15:04:52.057Z,8.30
2022-12-19T15:07:08.677Z,8.70
2022-12-19T15:11:08.582Z,8.53
2022-12-19T15:14:50.942Z,8.60
2022-12-19T15:15:48.364Z,8.23
2022-12-19T15:18:23.899Z,7.97
2022-12-19T15:20:52.114Z,8.30
2022-12-19T15:23:22.268Z,7.93
2022-12-19T15:26:07.344Z,7.93
2022-12-19T15:28:49.903Z,8.17
2022-12-19T15:31:32.262Z,7.10
2022-12-19T15:34:32.840Z,8.03
2022-12-19T15:36:45.913Z,8.00
2022-12-19T15:39:12.455Z,7.50
2022-12-19T15:41:38.993Z,6.97
2022-12-19T15:44:36.890Z,7.53
2022-12-19T15:47:06.431Z,7.23
2022-12-19T15:49:35.081Z,8.10
2022-12-19T15:52:03.080Z,7.83
2022-12-19T15:57:26.233Z,7.30
2022-12-19T15:59:53.165Z,7.47
2022-12-19T16:02:25.403Z,6.93
2022-12-19T16:04:55.558Z,7.40
2022-12-19T16:07:26.540Z,7.07
2022-12-19T16:09:53.146Z,7.77
2022-12-19T16:12:27.100Z,6.60
2022-12-19T16:14:57.616Z,7.17
2022-12-19T16:17:26.250Z,6.83
2022-12-19T16:19:52.828Z,7.23
2022-12-19T16:22:22.845Z,7.40
2022-12-19T16:24:51.441Z,7.30
2022-12-19T16:27:26.824Z,6.60
2022-12-19T16:29:54.863Z,7.33
2022-12-19T16:32:25.691Z,7.33
2022-12-19T16:34:53.228Z,7.87
2022-12-19T16:37:19.785Z,6.67
2022-12-19T16:39:46.255Z,6.53
2022-12-19T16:42:15.924Z,6.60
2022-12-19T16:44:43.824Z,6.90
2022-12-19T16:47:15.158Z,7.37
2022-12-19T16:49:41.875Z,7.30
2022-12-19T16:52:08.629Z,6.97
2022-12-19T16:54:35.110Z,7.13
2022-12-19T16:57:06.649Z,7.30
2022-12-19T16:59:36.000Z,6.60
2022-12-19T17:02:03.272Z,6.93
2022-12-19T17:04:30.164Z,7.40
2022-12-19T17:06:56.752Z,6.60
2022-12-19T17:09:24.790Z,6.70
2022-12-19T17:12:01.053Z,6.67
2022-12-19T17:14:31.882Z,6.57
2022-12-19T17:16:59.331Z,6.97
2022-12-19T17:19:26.012Z,6.73
2022-12-19T17:21:52.981Z,7.60
2022-12-19T17:24:20.019Z,6.60
2022-12-19T17:26:47.162Z,7.30
2022-12-19T17:29:14.101Z,7.50
2022-12-19T17:31:41.519Z,7.70
2022-12-19T17:34:40.662Z,8.07
2022-12-19T17:37:14.771Z,7.50
2022-12-19T17:39:42.307Z,7.53
2022-12-19T17:42:22.973Z,8.07
2022-12-19T17:44:49.501Z,7.30
2022-12-19T17:47:19.727Z,6.97
2022-12-19T17:49:48.140Z,7.13
2022-12-19T17:52:17.572Z,7.27
2022-12-19T17:54:44.653Z,7.63
2022-12-19T17:57:16.000Z,8.33
2022-12-19T17:59:42.546Z,6.53
2022-12-19T18:02:20.761Z,6.43
2022-12-19T18:04:47.675Z,7.33
2022-12-19T18:07:18.001Z,6.90
2022-12-19T18:09:45.019Z,6.90
2022-12-19T18:12:11.630Z,7.23
2022-12-19T18:14:38.242Z,7.23
2022-12-19T18:17:05.366Z,6.80
2022-12-19T18:19:34.161Z,7.10
2022-12-19T18:22:00.668Z,6.93
2022-12-19T18:24:29.714Z,7.37
2022-12-19T18:26:56.222Z,7.70
2022-12-19T18:29:22.891Z,7.47
2022-12-19T18:31:51.236Z,6.93
2022-12-19T18:34:20.845Z,7.57
2022-12-19T18:36:48.253Z,6.90
2022-12-19T18:39:24.099Z,6.87
2022-12-19T18:41:51.210Z,6.70
2022-12-19T18:44:17.927Z,7.10
2022-12-19T18:46:45.449Z,6.70
2022-12-19T18:49:14.191Z,6.93
2022-12-19T18:51:40.770Z,6.07
2022-12-19T18:54:19.628Z,6.77
2022-12-19T18:56:46.201Z,7.27
2022-12-19T18:59:12.721Z,6.90
2022-12-19T19:01:42.650Z,7.27
2022-12-19T19:04:12.218Z,6.47
2022-12-19T19:06:40.304Z,6.67
2022-12-19T19:09:16.024Z,6.80
2022-12-19T19:11:42.581Z,6.53
2022-12-19T19:14:09.716Z,7.47
2022-12-19T19:16:39.926Z,7.37
2022-12-19T19:19:10.039Z,7.03
2022-12-19T19:21:37.273Z,6.47
2022-12-19T19:24:16.627Z,6.70
2022-12-19T19:26:43.197Z,6.70
2022-12-19T19:29:09.860Z,6.50
2022-12-19T19:31:40.831Z,7.03
2022-12-19T19:34:15.585Z,6.67
2022-12-19T19:36:46.345Z,6.33
2022-12-19T19:39:14.084Z,6.37
2022-12-19T19:41:40.623Z,5.93
2022-12-19T19:44:07.472Z,5.77
2022-12-19T19:46:33.996Z,5.30
2022-12-19T19:49:00.480Z,5.43
2022-12-19T19:51:29.046Z,5.73
2022-12-19T19:53:55.905Z,5.73
2022-12-19T19:56:22.486Z,5.30
2022-12-19T19:58:49.019Z,5.17
2022-12-19T20:01:15.673Z,5.67
2022-12-19T20:03:44.838Z,5.43
2022-12-19T20:06:12.176Z,5.70
2022-12-19T20:08:40.264Z,5.73
2022-12-19T20:11:08.366Z,5.43
2022-12-19T20:13:35.346Z,5.50
2022-12-19T20:16:08.447Z,5.33
2022-12-19T20:18:35.974Z,5.23
2022-12-19T20:21:04.725Z,5.70
2022-12-19T20:23:34.390Z,6.00
2022-12-19T20:26:05.072Z,5.67
2022-12-19T20:28:31.801Z,5.43
2022-12-19T20:30:58.609Z,5.30
2022-12-19T20:33:25.510Z,5.00
2022-12-19T20:35:56.896Z,5.40
2022-12-19T20:38:23.800Z,5.30
2022-12-19T20:40:55.884Z,5.07
2022-12-19T20:43:23.893Z,5.30
2022-12-19T20:45:51.032Z,5.20
2022-12-19T20:48:18.580Z,4.90
2022-12-19T20:50:45.049Z,5.33
2022-12-19T20:53:11.593Z,5.60
2022-12-19T20:55:38.093Z,5.80
2022-12-19T20:58:04.634Z,5.20
2022-12-19T21:00:31.079Z,4.77
2022-12-19T21:03:27.196Z,5.77
2022-12-19T21:05:44.832Z,4.73
2022-12-19T21:08:11.365Z,5.07
2022-12-19T21:10:38.029Z,4.50
2022-12-19T21:13:04.549Z,4.67
2022-12-19T21:15:31.455Z,4.83
2022-12-19T21:17:58.007Z,4.40
2022-12-19T21:20:33.913Z,5.23
2022-12-19T21:23:01.211Z,4.87
2022-12-19T21:25:27.885Z,4.93
2022-12-19T21:27:54.393Z,5.10
2022-12-19T21:30:21.060Z,5.37
2022-12-19T21:32:47.603Z,4.53
2022-12-19T21:35:14.115Z,4.27
2022-12-19T21:37:43.715Z,4.03
2022-12-19T21:40:10.922Z,4.17
2022-12-19T21:42:37.397Z,4.67
2022-12-19T21:45:04.168Z,4.57
2022-12-19T21:47:30.656Z,4.20
2022-12-19T21:49:57.115Z,4.30
2022-12-19T21:52:23.606Z,4.30
2022-12-19T21:54:50.263Z,4.03
2022-12-19T21:57:16.759Z,3.83
2022-12-19T21:59:43.331Z,3.77
2022-12-19T22:02:10.749Z,3.83
2022-12-19T22:04:37.291Z,4.10
2022-12-19T22:07:05.128Z,3.70
2022-12-19T22:09:32.010Z,3.37
2022-12-19T22:11:58.482Z,3.73
2022-12-19T22:14:25.515Z,3.50
2022-12-19T22:16:52.260Z,3.60
2022-12-19T22:19:19.555Z,3.30
2022-12-19T22:21:47.240Z,3.47
2022-12-19T22:24:16.369Z,3.77
2022-12-19T22:26:43.274Z,3.77
2022-12-19T22:29:14.671Z,3.80
2022-12-19T22:31:41.458Z,5.37
2022-12-19T22:34:13.233Z,3.60
2022-12-19T22:36:41.419Z,3.37
2022-12-19T22:39:19.664Z,3.87
2022-12-19T22:41:46.919Z,3.30
2022-12-19T22:44:20.288Z,3.50
2022-12-19T22:46:47.136Z,3.53
2022-12-19T22:49:14.304Z,3.20
2022-12-19T22:51:41.454Z,3.50
2022-12-19T22:54:08.314Z,3.20
2022-12-19T22:56:36.935Z,3.43
2022-12-19T22:59:06.460Z,3.97
2022-12-19T23:01:37.224Z,3.30
2022-12-19T23:04:05.392Z,3.23
2022-12-19T23:06:34.418Z,3.20
2022-12-19T23:09:01.683Z,2.80
2022-12-19T23:11:32.346Z,3.50
2022-12-19T23:14:00.547Z,3.57
2022-12-19T23:16:27.165Z,3.10
2022-12-19T23:18:53.779Z,3.40
2022-12-19T23:21:22.847Z,3.10
2022-12-19T23:23:52.159Z,3.20
2022-12-19T23:26:28.092Z,3.03
2022-12-19T23:29:00.623Z,2.90
2022-12-19T23:31:28.395Z,3.10
2022-12-19T23:33:55.829Z,3.03
2022-12-19T23:36:44.998Z,3.23
2022-12-19T23:39:11.198Z,2.63
2022-12-19T23:41:38.381Z,2.40
2022-12-19T23:44:05.272Z,2.73
2022-12-19T23:46:32.021Z,2.40
2022-12-19T23:48:58.572Z,2.53
2022-12-19T23:51:27.211Z,2.60
2022-12-19T23:53:55.493Z,2.67
2022-12-19T23:56:24.554Z,2.67
2022-12-19T23:58:51.650Z,2.40
